Indianola Municipal Airport


Codes: KIDL/
Name: Indianola Municipal Airport
City: Indianola
Country: United States
Elevation: 126 ft.

Photos at Indianola Municipal Airport


   Photos courtesy of SpottingLog. You can add your own sightings and photos by signing up for a free trial today.



No photos found.

Weather at Indianola Municipal Airport


Time (UTC)DescriptionTempratureWindCloud coverageVisibilityPressureHumidity
15-Apr-2024 15:00Overcast Clouds21°C11 mph, S99%10000m1017hPa85%
15-Apr-2024 18:00Overcast Clouds22°C11 mph, S97%10000m1017hPa78%
15-Apr-2024 21:00Broken Clouds24°C11 mph, S68%10000m1015hPa66%
16-Apr-2024 00:00Broken Clouds23°C7 mph, S75%10000m1014hPa75%
16-Apr-2024 03:00Overcast Clouds21°C7 mph, S100%10000m1015hPa78%
16-Apr-2024 06:00Overcast Clouds20°C11 mph, S100%10000m1014hPa80%
16-Apr-2024 09:00Overcast Clouds18°C9 mph, S100%10000m1015hPa92%
16-Apr-2024 12:00Overcast Clouds18°C13 mph, S100%10000m1014hPa94%
16-Apr-2024 15:00Overcast Clouds22°C16 mph, S100%10000m1015hPa80%
16-Apr-2024 18:00Overcast Clouds25°C20 mph, S100%10000m1013hPa68%
16-Apr-2024 21:00Overcast Clouds26°C16 mph, S100%10000m1012hPa67%
17-Apr-2024 00:00Overcast Clouds24°C16 mph, S100%10000m1011hPa72%
17-Apr-2024 03:00Overcast Clouds22°C13 mph, S100%10000m1013hPa82%
17-Apr-2024 06:00Overcast Clouds21°C16 mph, S100%10000m1013hPa84%
17-Apr-2024 09:00Overcast Clouds21°C16 mph, SW100%10000m1012hPa89%
17-Apr-2024 12:00Overcast Clouds21°C13 mph, S100%10000m1013hPa90%
17-Apr-2024 15:00Overcast Clouds22°C13 mph, SW100%10000m1014hPa88%
17-Apr-2024 18:00Overcast Clouds24°C13 mph, SW100%10000m1014hPa80%
17-Apr-2024 21:00Overcast Clouds26°C11 mph, SW100%10000m1013hPa72%
18-Apr-2024 00:00Overcast Clouds23°C9 mph, S100%10000m1013hPa85%
18-Apr-2024 03:00Overcast Clouds22°C7 mph, S100%10000m1014hPa87%
18-Apr-2024 06:00Overcast Clouds21°C7 mph, SW100%10000m1015hPa91%
18-Apr-2024 09:00Overcast Clouds20°C7 mph, SW100%10000m1015hPa94%
18-Apr-2024 12:00Overcast Clouds19°C7 mph, S97%10000m1016hPa96%
18-Apr-2024 15:00Overcast Clouds24°C7 mph, S100%10000m1016hPa81%
18-Apr-2024 18:00Overcast Clouds27°C13 mph, S100%10000m1014hPa66%
18-Apr-2024 21:00Broken Clouds28°C13 mph, S68%10000m1012hPa61%
19-Apr-2024 00:00Light Rain25°C13 mph, S77%10000m1013hPa79%
19-Apr-2024 03:00Broken Clouds22°C11 mph, SW52%10000m1014hPa87%
19-Apr-2024 06:00Light Rain21°C9 mph, SW66%10000m1014hPa91%
19-Apr-2024 09:00Light Rain21°C9 mph, SW100%10000m1014hPa89%
19-Apr-2024 12:00Light Rain20°C7 mph, SW100%10000m1015hPa94%
19-Apr-2024 15:00Light Rain23°C9 mph, W100%10000m1016hPa82%
19-Apr-2024 18:00Light Rain20°C16 mph, N100%10000m1016hPa86%
19-Apr-2024 21:00Light Rain19°C13 mph, N100%10000m1016hPa84%
20-Apr-2024 00:00Light Rain17°C13 mph, N100%10000m1017hPa90%
20-Apr-2024 03:00Moderate Rain16°C11 mph, NE100%10000m1018hPa90%
20-Apr-2024 06:00Overcast Clouds15°C11 mph, NE100%10000m1018hPa89%
20-Apr-2024 09:00Overcast Clouds15°C13 mph, NE100%10000m1019hPa85%
20-Apr-2024 12:00Overcast Clouds14°C11 mph, NE100%10000m1021hPa81%